sensor_id;sensor_type;location;lat;lon;timestamp;P1;durP1;ratioP1;P2;durP2;ratioP2
37239;SDS011;23130;48.760;9.178;2022-07-29T00:01:46;11.60;;;8.90;;
37239;SDS011;23130;48.760;9.178;2022-07-29T00:04:11;10.38;;;9.18;;
37239;SDS011;23130;48.760;9.178;2022-07-29T00:06:37;12.45;;;8.35;;
37239;SDS011;23130;48.760;9.178;2022-07-29T00:09:03;9.57;;;8.35;;
37239;SDS011;23130;48.760;9.178;2022-07-29T00:11:29;9.68;;;8.68;;
37239;SDS011;23130;48.760;9.178;2022-07-29T00:13:54;9.75;;;8.75;;
37239;SDS011;23130;48.760;9.178;2022-07-29T00:16:20;10.75;;;8.50;;
37239;SDS011;23130;48.760;9.178;2022-07-29T00:18:45;10.23;;;8.23;;
37239;SDS011;23130;48.760;9.178;2022-07-29T00:21:11;12.23;;;10.02;;
37239;SDS011;23130;48.760;9.178;2022-07-29T00:23:36;9.50;;;8.50;;
37239;SDS011;23130;48.760;9.178;2022-07-29T00:26:02;11.30;;;9.35;;
37239;SDS011;23130;48.760;9.178;2022-07-29T00:28:28;9.85;;;8.77;;
37239;SDS011;23130;48.760;9.178;2022-07-29T00:30:53;10.65;;;9.05;;
37239;SDS011;23130;48.760;9.178;2022-07-29T00:33:19;12.82;;;8.95;;
37239;SDS011;23130;48.760;9.178;2022-07-29T00:35:45;9.63;;;8.68;;
37239;SDS011;23130;48.760;9.178;2022-07-29T00:38:15;10.85;;;8.65;;
37239;SDS011;23130;48.760;9.178;2022-07-29T00:40:42;9.88;;;8.68;;
37239;SDS011;23130;48.760;9.178;2022-07-29T00:43:08;10.23;;;9.05;;
37239;SDS011;23130;48.760;9.178;2022-07-29T00:45:35;9.10;;;7.85;;
37239;SDS011;23130;48.760;9.178;2022-07-29T00:48:01;9.25;;;8.30;;
37239;SDS011;23130;48.760;9.178;2022-07-29T00:50:28;14.63;;;8.95;;
37239;SDS011;23130;48.760;9.178;2022-07-29T00:52:53;9.98;;;7.75;;
37239;SDS011;23130;48.760;9.178;2022-07-29T00:55:20;10.18;;;9.15;;
37239;SDS011;23130;48.760;9.178;2022-07-29T00:57:45;9.55;;;8.65;;
37239;SDS011;23130;48.760;9.178;2022-07-29T01:00:16;12.15;;;8.15;;
37239;SDS011;23130;48.760;9.178;2022-07-29T01:02:44;8.45;;;7.65;;
37239;SDS011;23130;48.760;9.178;2022-07-29T01:05:13;9.15;;;8.00;;
37239;SDS011;23130;48.760;9.178;2022-07-29T01:07:39;8.27;;;7.38;;
37239;SDS011;23130;48.760;9.178;2022-07-29T01:10:06;8.43;;;6.80;;
37239;SDS011;23130;48.760;9.178;2022-07-29T01:12:34;8.45;;;7.60;;
37239;SDS011;23130;48.760;9.178;2022-07-29T01:15:02;9.45;;;7.72;;
37239;SDS011;23130;48.760;9.178;2022-07-29T01:29:05;8.00;;;6.88;;
37239;SDS011;23130;48.760;9.178;2022-07-29T01:31:59;10.35;;;7.53;;
37239;SDS011;23130;48.760;9.178;2022-07-29T01:34:41;8.48;;;7.30;;
37239;SDS011;23130;48.760;9.178;2022-07-29T01:37:29;8.77;;;7.05;;
37239;SDS011;23130;48.760;9.178;2022-07-29T01:40:03;9.70;;;7.07;;
37239;SDS011;23130;48.760;9.178;2022-07-29T01:42:43;9.63;;;6.63;;
37239;SDS011;23130;48.760;9.178;2022-07-29T01:48:03;7.47;;;6.75;;
37239;SDS011;23130;48.760;9.178;2022-07-29T01:53:12;7.97;;;6.43;;
37239;SDS011;23130;48.760;9.178;2022-07-29T01:55:40;9.73;;;7.03;;
37239;SDS011;23130;48.760;9.178;2022-07-29T01:58:09;7.72;;;6.53;;
37239;SDS011;23130;48.760;9.178;2022-07-29T02:00:37;7.80;;;6.82;;
37239;SDS011;23130;48.760;9.178;2022-07-29T02:03:05;8.38;;;6.88;;
37239;SDS011;23130;48.760;9.178;2022-07-29T02:05:36;7.22;;;6.20;;
37239;SDS011;23130;48.760;9.178;2022-07-29T02:08:04;7.38;;;6.68;;
37239;SDS011;23130;48.760;9.178;2022-07-29T02:10:32;7.45;;;6.68;;
37239;SDS011;23130;48.760;9.178;2022-07-29T02:12:59;9.10;;;6.47;;
37239;SDS011;23130;48.760;9.178;2022-07-29T02:15:27;7.60;;;6.43;;
37239;SDS011;23130;48.760;9.178;2022-07-29T02:18:00;8.45;;;6.68;;
37239;SDS011;23130;48.760;9.178;2022-07-29T02:20:28;10.05;;;6.63;;
37239;SDS011;23130;48.760;9.178;2022-07-29T02:22:54;7.13;;;6.43;;
37239;SDS011;23130;48.760;9.178;2022-07-29T02:25:22;8.02;;;6.13;;
37239;SDS011;23130;48.760;9.178;2022-07-29T02:27:50;8.45;;;6.35;;
37239;SDS011;23130;48.760;9.178;2022-07-29T02:30:17;7.57;;;6.63;;
37239;SDS011;23130;48.760;9.178;2022-07-29T02:32:45;8.65;;;7.43;;
37239;SDS011;23130;48.760;9.178;2022-07-29T02:35:14;7.60;;;6.55;;
37239;SDS011;23130;48.760;9.178;2022-07-29T02:37:41;7.72;;;6.60;;
37239;SDS011;23130;48.760;9.178;2022-07-29T02:40:11;7.75;;;6.18;;
37239;SDS011;23130;48.760;9.178;2022-07-29T02:42:37;7.90;;;6.20;;
37239;SDS011;23130;48.760;9.178;2022-07-29T02:45:06;9.27;;;6.32;;
37239;SDS011;23130;48.760;9.178;2022-07-29T02:50:06;7.75;;;5.75;;
37239;SDS011;23130;48.760;9.178;2022-07-29T02:52:47;7.80;;;6.15;;
37239;SDS011;23130;48.760;9.178;2022-07-29T02:55:21;8.10;;;5.95;;
37239;SDS011;23130;48.760;9.178;2022-07-29T02:57:53;8.03;;;6.23;;
37239;SDS011;23130;48.760;9.178;2022-07-29T03:00:28;6.68;;;5.95;;
37239;SDS011;23130;48.760;9.178;2022-07-29T03:02:56;8.20;;;6.55;;
37239;SDS011;23130;48.760;9.178;2022-07-29T03:05:24;6.60;;;6.00;;
37239;SDS011;23130;48.760;9.178;2022-07-29T03:07:53;6.85;;;6.25;;
37239;SDS011;23130;48.760;9.178;2022-07-29T03:10:22;7.18;;;6.18;;
37239;SDS011;23130;48.760;9.178;2022-07-29T03:12:49;7.78;;;6.65;;
37239;SDS011;23130;48.760;9.178;2022-07-29T03:15:16;7.00;;;6.10;;
37239;SDS011;23130;48.760;9.178;2022-07-29T03:17:42;8.50;;;6.57;;
37239;SDS011;23130;48.760;9.178;2022-07-29T03:20:09;7.63;;;6.00;;
37239;SDS011;23130;48.760;9.178;2022-07-29T03:22:39;8.35;;;6.43;;
37239;SDS011;23130;48.760;9.178;2022-07-29T03:25:12;7.30;;;5.85;;
37239;SDS011;23130;48.760;9.178;2022-07-29T03:27:42;7.32;;;6.55;;
37239;SDS011;23130;48.760;9.178;2022-07-29T03:30:08;5.93;;;5.35;;
37239;SDS011;23130;48.760;9.178;2022-07-29T03:32:35;7.20;;;5.47;;
37239;SDS011;23130;48.760;9.178;2022-07-29T03:35:00;6.65;;;6.05;;
37239;SDS011;23130;48.760;9.178;2022-07-29T03:37:26;7.38;;;6.05;;
37239;SDS011;23130;48.760;9.178;2022-07-29T03:39:52;9.27;;;6.63;;
37239;SDS011;23130;48.760;9.178;2022-07-29T03:42:20;7.18;;;6.40;;
37239;SDS011;23130;48.760;9.178;2022-07-29T03:44:48;8.30;;;6.25;;
37239;SDS011;23130;48.760;9.178;2022-07-29T03:47:16;6.60;;;5.10;;
37239;SDS011;23130;48.760;9.178;2022-07-29T03:49:45;5.88;;;5.28;;
37239;SDS011;23130;48.760;9.178;2022-07-29T03:52:15;7.05;;;6.35;;
37239;SDS011;23130;48.760;9.178;2022-07-29T03:54:41;9.65;;;6.28;;
37239;SDS011;23130;48.760;9.178;2022-07-29T03:57:07;5.60;;;5.07;;
37239;SDS011;23130;48.760;9.178;2022-07-29T03:59:36;6.20;;;5.60;;
37239;SDS011;23130;48.760;9.178;2022-07-29T04:02:03;5.70;;;5.10;;
37239;SDS011;23130;48.760;9.178;2022-07-29T04:04:32;6.00;;;5.40;;
37239;SDS011;23130;48.760;9.178;2022-07-29T04:06:58;7.15;;;6.43;;
37239;SDS011;23130;48.760;9.178;2022-07-29T04:09:24;5.53;;;5.03;;
37239;SDS011;23130;48.760;9.178;2022-07-29T04:11:49;7.32;;;5.85;;
37239;SDS011;23130;48.760;9.178;2022-07-29T04:14:15;8.27;;;5.55;;
37239;SDS011;23130;48.760;9.178;2022-07-29T04:16:40;6.53;;;5.00;;
37239;SDS011;23130;48.760;9.178;2022-07-29T04:19:06;7.90;;;6.07;;
37239;SDS011;23130;48.760;9.178;2022-07-29T04:21:36;6.70;;;6.00;;
37239;SDS011;23130;48.760;9.178;2022-07-29T04:24:05;6.68;;;6.05;;
37239;SDS011;23130;48.760;9.178;2022-07-29T04:26:31;5.47;;;4.97;;
37239;SDS011;23130;48.760;9.178;2022-07-29T04:28:57;8.10;;;5.78;;
37239;SDS011;23130;48.760;9.178;2022-07-29T04:31:23;7.07;;;4.63;;
37239;SDS011;23130;48.760;9.178;2022-07-29T04:33:49;5.68;;;4.78;;
37239;SDS011;23130;48.760;9.178;2022-07-29T04:36:14;7.10;;;4.57;;
37239;SDS011;23130;48.760;9.178;2022-07-29T04:38:40;5.03;;;4.57;;
37239;SDS011;23130;48.760;9.178;2022-07-29T04:41:05;5.22;;;4.72;;
37239;SDS011;23130;48.760;9.178;2022-07-29T04:43:33;6.97;;;4.43;;
37239;SDS011;23130;48.760;9.178;2022-07-29T04:45:59;6.20;;;4.35;;
37239;SDS011;23130;48.760;9.178;2022-07-29T04:48:25;5.35;;;4.70;;
37239;SDS011;23130;48.760;9.178;2022-07-29T04:50:51;5.35;;;4.30;;
37239;SDS011;23130;48.760;9.178;2022-07-29T04:53:17;3.70;;;3.30;;
37239;SDS011;23130;48.760;9.178;2022-07-29T04:55:43;4.72;;;3.45;;
37239;SDS011;23130;48.760;9.178;2022-07-29T04:58:09;3.83;;;2.58;;
37239;SDS011;23130;48.760;9.178;2022-07-29T05:00:35;3.22;;;2.05;;
37239;SDS011;23130;48.760;9.178;2022-07-29T05:03:01;3.53;;;2.67;;
37239;SDS011;23130;48.760;9.178;2022-07-29T05:05:27;2.83;;;2.50;;
37239;SDS011;23130;48.760;9.178;2022-07-29T05:07:52;4.05;;;2.55;;
37239;SDS011;23130;48.760;9.178;2022-07-29T05:10:18;2.95;;;2.28;;
37239;SDS011;23130;48.760;9.178;2022-07-29T05:12:44;3.83;;;2.38;;
37239;SDS011;23130;48.760;9.178;2022-07-29T05:15:09;3.40;;;2.15;;
37239;SDS011;23130;48.760;9.178;2022-07-29T05:17:35;3.85;;;2.17;;
37239;SDS011;23130;48.760;9.178;2022-07-29T05:20:00;2.25;;;2.00;;
37239;SDS011;23130;48.760;9.178;2022-07-29T05:22:26;2.97;;;2.17;;
37239;SDS011;23130;48.760;9.178;2022-07-29T05:24:51;4.35;;;2.40;;
37239;SDS011;23130;48.760;9.178;2022-07-29T05:27:17;3.70;;;2.17;;
37239;SDS011;23130;48.760;9.178;2022-07-29T05:29:42;2.75;;;2.08;;
37239;SDS011;23130;48.760;9.178;2022-07-29T05:32:09;1.92;;;1.67;;
37239;SDS011;23130;48.760;9.178;2022-07-29T05:34:34;3.22;;;1.73;;
37239;SDS011;23130;48.760;9.178;2022-07-29T05:37:00;1.90;;;1.67;;
37239;SDS011;23130;48.760;9.178;2022-07-29T05:39:25;3.42;;;1.92;;
37239;SDS011;23130;48.760;9.178;2022-07-29T05:41:51;2.22;;;1.77;;
37239;SDS011;23130;48.760;9.178;2022-07-29T05:44:16;2.45;;;1.90;;
37239;SDS011;23130;48.760;9.178;2022-07-29T05:46:42;3.33;;;1.75;;
37239;SDS011;23130;48.760;9.178;2022-07-29T05:49:08;2.08;;;1.60;;
37239;SDS011;23130;48.760;9.178;2022-07-29T05:51:34;2.10;;;1.63;;
37239;SDS011;23130;48.760;9.178;2022-07-29T05:53:59;3.03;;;1.80;;
37239;SDS011;23130;48.760;9.178;2022-07-29T05:56:25;2.58;;;2.00;;
37239;SDS011;23130;48.760;9.178;2022-07-29T05:58:51;3.67;;;2.90;;
37239;SDS011;23130;48.760;9.178;2022-07-29T06:01:17;3.67;;;2.05;;
37239;SDS011;23130;48.760;9.178;2022-07-29T06:03:42;2.97;;;2.20;;
37239;SDS011;23130;48.760;9.178;2022-07-29T06:06:08;2.83;;;1.83;;
37239;SDS011;23130;48.760;9.178;2022-07-29T06:08:34;2.70;;;1.75;;
37239;SDS011;23130;48.760;9.178;2022-07-29T06:11:01;2.50;;;1.98;;
37239;SDS011;23130;48.760;9.178;2022-07-29T06:13:27;3.25;;;2.22;;
37239;SDS011;23130;48.760;9.178;2022-07-29T06:15:53;2.30;;;1.95;;
37239;SDS011;23130;48.760;9.178;2022-07-29T06:18:18;4.25;;;1.70;;
37239;SDS011;23130;48.760;9.178;2022-07-29T06:20:45;2.08;;;1.88;;
37239;SDS011;23130;48.760;9.178;2022-07-29T06:23:11;3.45;;;2.33;;
37239;SDS011;23130;48.760;9.178;2022-07-29T06:25:37;2.17;;;1.98;;
37239;SDS011;23130;48.760;9.178;2022-07-29T06:28:04;3.17;;;2.20;;
37239;SDS011;23130;48.760;9.178;2022-07-29T06:30:30;2.45;;;1.83;;
37239;SDS011;23130;48.760;9.178;2022-07-29T06:32:55;3.08;;;2.03;;
37239;SDS011;23130;48.760;9.178;2022-07-29T06:35:21;4.18;;;1.83;;
37239;SDS011;23130;48.760;9.178;2022-07-29T06:37:47;2.72;;;1.92;;
37239;SDS011;23130;48.760;9.178;2022-07-29T06:40:12;2.35;;;1.95;;
37239;SDS011;23130;48.760;9.178;2022-07-29T06:42:56;3.85;;;2.40;;
37239;SDS011;23130;48.760;9.178;2022-07-29T06:45:22;3.35;;;2.35;;
37239;SDS011;23130;48.760;9.178;2022-07-29T06:47:49;3.70;;;2.55;;
37239;SDS011;23130;48.760;9.178;2022-07-29T06:50:14;3.78;;;2.33;;
37239;SDS011;23130;48.760;9.178;2022-07-29T06:52:40;2.80;;;2.35;;
37239;SDS011;23130;48.760;9.178;2022-07-29T06:55:07;3.67;;;2.90;;
37239;SDS011;23130;48.760;9.178;2022-07-29T06:57:33;3.45;;;2.80;;
37239;SDS011;23130;48.760;9.178;2022-07-29T06:59:59;4.13;;;2.78;;
37239;SDS011;23130;48.760;9.178;2022-07-29T07:02:24;3.22;;;2.20;;
37239;SDS011;23130;48.760;9.178;2022-07-29T07:04:50;4.97;;;2.35;;
37239;SDS011;23130;48.760;9.178;2022-07-29T07:07:16;4.40;;;2.28;;
37239;SDS011;23130;48.760;9.178;2022-07-29T07:09:42;3.50;;;2.47;;
37239;SDS011;23130;48.760;9.178;2022-07-29T07:12:07;3.45;;;2.53;;
37239;SDS011;23130;48.760;9.178;2022-07-29T07:14:33;6.30;;;2.65;;
37239;SDS011;23130;48.760;9.178;2022-07-29T07:16:59;3.17;;;2.35;;
37239;SDS011;23130;48.760;9.178;2022-07-29T07:19:25;3.58;;;2.53;;
37239;SDS011;23130;48.760;9.178;2022-07-29T07:21:52;2.92;;;2.22;;
37239;SDS011;23130;48.760;9.178;2022-07-29T07:24:18;2.85;;;2.47;;
37239;SDS011;23130;48.760;9.178;2022-07-29T07:26:43;3.10;;;2.33;;
37239;SDS011;23130;48.760;9.178;2022-07-29T07:29:09;4.70;;;2.78;;
37239;SDS011;23130;48.760;9.178;2022-07-29T07:31:37;5.88;;;2.83;;
37239;SDS011;23130;48.760;9.178;2022-07-29T07:34:02;3.15;;;2.58;;
37239;SDS011;23130;48.760;9.178;2022-07-29T07:36:28;5.07;;;3.10;;
37239;SDS011;23130;48.760;9.178;2022-07-29T07:38:54;5.03;;;3.00;;
37239;SDS011;23130;48.760;9.178;2022-07-29T07:41:20;3.88;;;2.53;;
37239;SDS011;23130;48.760;9.178;2022-07-29T07:43:47;3.88;;;2.90;;
37239;SDS011;23130;48.760;9.178;2022-07-29T07:46:13;3.60;;;2.75;;
37239;SDS011;23130;48.760;9.178;2022-07-29T07:48:38;4.97;;;2.58;;
37239;SDS011;23130;48.760;9.178;2022-07-29T07:51:04;3.88;;;2.70;;
37239;SDS011;23130;48.760;9.178;2022-07-29T07:53:29;4.32;;;2.97;;
37239;SDS011;23130;48.760;9.178;2022-07-29T07:55:55;4.45;;;2.78;;
37239;SDS011;23130;48.760;9.178;2022-07-29T07:58:21;5.88;;;2.92;;
37239;SDS011;23130;48.760;9.178;2022-07-29T08:00:46;4.45;;;3.17;;
37239;SDS011;23130;48.760;9.178;2022-07-29T08:03:12;4.70;;;3.10;;
37239;SDS011;23130;48.760;9.178;2022-07-29T08:05:39;3.20;;;2.60;;
37239;SDS011;23130;48.760;9.178;2022-07-29T08:08:05;6.90;;;2.88;;
37239;SDS011;23130;48.760;9.178;2022-07-29T08:10:31;3.00;;;2.60;;
37239;SDS011;23130;48.760;9.178;2022-07-29T08:13:15;4.25;;;3.10;;
37239;SDS011;23130;48.760;9.178;2022-07-29T08:15:41;5.00;;;3.53;;
37239;SDS011;23130;48.760;9.178;2022-07-29T08:18:08;3.80;;;3.40;;
37239;SDS011;23130;48.760;9.178;2022-07-29T08:20:33;4.60;;;3.45;;
37239;SDS011;23130;48.760;9.178;2022-07-29T08:23:00;6.10;;;3.22;;
37239;SDS011;23130;48.760;9.178;2022-07-29T08:25:27;5.40;;;3.03;;
37239;SDS011;23130;48.760;9.178;2022-07-29T08:27:52;6.70;;;3.53;;
37239;SDS011;23130;48.760;9.178;2022-07-29T08:30:18;5.10;;;3.40;;
37239;SDS011;23130;48.760;9.178;2022-07-29T08:32:43;3.40;;;3.10;;
37239;SDS011;23130;48.760;9.178;2022-07-29T08:35:09;5.40;;;3.50;;
37239;SDS011;23130;48.760;9.178;2022-07-29T08:37:35;6.63;;;3.63;;
37239;SDS011;23130;48.760;9.178;2022-07-29T08:40:00;6.63;;;3.67;;
37239;SDS011;23130;48.760;9.178;2022-07-29T08:42:26;7.38;;;4.40;;
37239;SDS011;23130;48.760;9.178;2022-07-29T08:44:51;6.47;;;3.63;;
37239;SDS011;23130;48.760;9.178;2022-07-29T08:47:18;7.85;;;3.85;;
37239;SDS011;23130;48.760;9.178;2022-07-29T08:49:44;5.05;;;3.38;;
37239;SDS011;23130;48.760;9.178;2022-07-29T08:52:12;5.50;;;3.25;;
37239;SDS011;23130;48.760;9.178;2022-07-29T08:54:39;6.45;;;3.45;;
37239;SDS011;23130;48.760;9.178;2022-07-29T08:57:07;4.75;;;3.70;;
37239;SDS011;23130;48.760;9.178;2022-07-29T08:59:34;5.78;;;3.42;;
37239;SDS011;23130;48.760;9.178;2022-07-29T09:02:02;4.15;;;3.75;;
37239;SDS011;23130;48.760;9.178;2022-07-29T09:04:32;5.85;;;3.70;;
37239;SDS011;23130;48.760;9.178;2022-07-29T09:07:00;6.65;;;3.72;;
37239;SDS011;23130;48.760;9.178;2022-07-29T09:09:28;5.60;;;3.88;;
37239;SDS011;23130;48.760;9.178;2022-07-29T09:11:54;6.80;;;3.75;;
37239;SDS011;23130;48.760;9.178;2022-07-29T09:14:20;4.50;;;4.10;;
37239;SDS011;23130;48.760;9.178;2022-07-29T09:16:46;5.07;;;3.80;;
37239;SDS011;23130;48.760;9.178;2022-07-29T09:21:48;4.97;;;3.72;;
37239;SDS011;23130;48.760;9.178;2022-07-29T09:26:52;5.85;;;3.80;;
37239;SDS011;23130;48.760;9.178;2022-07-29T09:29:19;5.20;;;3.95;;
37239;SDS011;23130;48.760;9.178;2022-07-29T09:31:46;6.22;;;4.43;;
37239;SDS011;23130;48.760;9.178;2022-07-29T09:34:14;5.30;;;4.57;;
37239;SDS011;23130;48.760;9.178;2022-07-29T09:36:43;7.07;;;4.40;;
37239;SDS011;23130;48.760;9.178;2022-07-29T09:39:10;4.45;;;3.67;;
37239;SDS011;23130;48.760;9.178;2022-07-29T09:41:50;6.78;;;4.28;;
37239;SDS011;23130;48.760;9.178;2022-07-29T09:44:18;8.85;;;4.50;;
37239;SDS011;23130;48.760;9.178;2022-07-29T09:49:32;5.28;;;4.50;;
37239;SDS011;23130;48.760;9.178;2022-07-29T09:52:05;7.40;;;4.70;;
37239;SDS011;23130;48.760;9.178;2022-07-29T09:54:32;5.00;;;3.95;;
37239;SDS011;23130;48.760;9.178;2022-07-29T09:57:07;6.07;;;3.92;;
37239;SDS011;23130;48.760;9.178;2022-07-29T09:59:37;7.43;;;4.88;;
37239;SDS011;23130;48.760;9.178;2022-07-29T10:02:13;5.40;;;4.40;;
37239;SDS011;23130;48.760;9.178;2022-07-29T10:04:40;7.28;;;4.28;;
37239;SDS011;23130;48.760;9.178;2022-07-29T10:07:06;7.80;;;3.83;;
37239;SDS011;23130;48.760;9.178;2022-07-29T10:09:32;4.13;;;3.58;;
37239;SDS011;23130;48.760;9.178;2022-07-29T10:12:11;6.10;;;4.05;;
37239;SDS011;23130;48.760;9.178;2022-07-29T10:14:40;5.43;;;3.95;;
37239;SDS011;23130;48.760;9.178;2022-07-29T10:17:07;5.53;;;4.07;;
37239;SDS011;23130;48.760;9.178;2022-07-29T10:19:35;10.50;;;3.97;;
37239;SDS011;23130;48.760;9.178;2022-07-29T10:22:02;5.85;;;4.13;;
37239;SDS011;23130;48.760;9.178;2022-07-29T10:24:30;5.55;;;4.45;;
37239;SDS011;23130;48.760;9.178;2022-07-29T10:26:57;6.72;;;3.85;;
37239;SDS011;23130;48.760;9.178;2022-07-29T10:29:24;5.95;;;3.90;;
37239;SDS011;23130;48.760;9.178;2022-07-29T10:32:05;6.25;;;3.78;;
37239;SDS011;23130;48.760;9.178;2022-07-29T10:34:47;8.60;;;4.47;;
37239;SDS011;23130;48.760;9.178;2022-07-29T10:40:46;15.70;;;4.90;;
37239;SDS011;23130;48.760;9.178;2022-07-29T10:43:50;5.25;;;4.03;;
37239;SDS011;23130;48.760;9.178;2022-07-29T10:46:17;7.00;;;5.05;;
37239;SDS011;23130;48.760;9.178;2022-07-29T10:54:19;17.38;;;8.77;;
37239;SDS011;23130;48.760;9.178;2022-07-29T11:05:16;17.77;;;10.02;;
37239;SDS011;23130;48.760;9.178;2022-07-29T11:08:16;15.25;;;11.07;;
37239;SDS011;23130;48.760;9.178;2022-07-29T11:10:48;21.70;;;14.13;;
37239;SDS011;23130;48.760;9.178;2022-07-29T11:16:08;29.05;;;20.42;;
37239;SDS011;23130;48.760;9.178;2022-07-29T11:18:34;25.00;;;19.02;;
37239;SDS011;23130;48.760;9.178;2022-07-29T11:21:00;27.05;;;18.98;;
37239;SDS011;23130;48.760;9.178;2022-07-29T11:31:16;17.90;;;15.45;;
37239;SDS011;23130;48.760;9.178;2022-07-29T11:39:38;17.38;;;15.50;;
37239;SDS011;23130;48.760;9.178;2022-07-29T11:50:02;15.23;;;13.63;;
37239;SDS011;23130;48.760;9.178;2022-07-29T11:52:33;13.77;;;12.27;;
37239;SDS011;23130;48.760;9.178;2022-07-29T11:55:17;11.27;;;9.52;;
37239;SDS011;23130;48.760;9.178;2022-07-29T11:57:49;9.63;;;7.47;;
37239;SDS011;23130;48.760;9.178;2022-07-29T12:02:48;9.32;;;7.53;;
37239;SDS011;23130;48.760;9.178;2022-07-29T12:05:13;11.23;;;7.15;;
37239;SDS011;23130;48.760;9.178;2022-07-29T12:07:40;10.05;;;8.00;;
37239;SDS011;23130;48.760;9.178;2022-07-29T12:10:07;9.30;;;6.28;;
37239;SDS011;23130;48.760;9.178;2022-07-29T12:12:34;6.97;;;5.32;;
37239;SDS011;23130;48.760;9.178;2022-07-29T12:15:13;4.93;;;4.43;;
37239;SDS011;23130;48.760;9.178;2022-07-29T12:17:40;5.75;;;5.20;;
37239;SDS011;23130;48.760;9.178;2022-07-29T12:20:06;6.28;;;4.00;;
37239;SDS011;23130;48.760;9.178;2022-07-29T12:22:36;3.92;;;3.58;;
37239;SDS011;23130;48.760;9.178;2022-07-29T12:25:08;10.63;;;4.63;;
37239;SDS011;23130;48.760;9.178;2022-07-29T12:27:35;4.78;;;3.85;;
37239;SDS011;23130;48.760;9.178;2022-07-29T12:30:04;5.55;;;4.30;;
37239;SDS011;23130;48.760;9.178;2022-07-29T12:32:35;6.20;;;5.25;;
37239;SDS011;23130;48.760;9.178;2022-07-29T12:35:03;5.18;;;4.68;;
37239;SDS011;23130;48.760;9.178;2022-07-29T12:37:34;5.50;;;4.80;;
37239;SDS011;23130;48.760;9.178;2022-07-29T12:40:02;5.78;;;5.18;;
37239;SDS011;23130;48.760;9.178;2022-07-29T12:42:29;6.63;;;5.43;;
37239;SDS011;23130;48.760;9.178;2022-07-29T12:44:55;6.18;;;4.47;;
37239;SDS011;23130;48.760;9.178;2022-07-29T12:47:21;6.60;;;4.70;;
37239;SDS011;23130;48.760;9.178;2022-07-29T12:49:47;4.38;;;3.97;;
37239;SDS011;23130;48.760;9.178;2022-07-29T12:52:28;5.20;;;4.30;;
37239;SDS011;23130;48.760;9.178;2022-07-29T12:54:55;5.10;;;4.43;;
37239;SDS011;23130;48.760;9.178;2022-07-29T12:57:21;4.93;;;4.43;;
37239;SDS011;23130;48.760;9.178;2022-07-29T13:02:34;7.45;;;4.90;;
37239;SDS011;23130;48.760;9.178;2022-07-29T13:05:01;6.82;;;4.47;;
37239;SDS011;23130;48.760;9.178;2022-07-29T13:07:29;7.72;;;5.00;;
37239;SDS011;23130;48.760;9.178;2022-07-29T13:13:00;6.53;;;4.13;;
37239;SDS011;23130;48.760;9.178;2022-07-29T13:15:33;7.32;;;4.95;;
37239;SDS011;23130;48.760;9.178;2022-07-29T13:17:58;5.28;;;4.70;;
37239;SDS011;23130;48.760;9.178;2022-07-29T13:20:25;6.45;;;5.57;;
37239;SDS011;23130;48.760;9.178;2022-07-29T13:22:54;12.40;;;6.72;;
37239;SDS011;23130;48.760;9.178;2022-07-29T13:25:28;7.85;;;6.38;;
37239;SDS011;23130;48.760;9.178;2022-07-29T13:27:56;8.07;;;7.07;;
37239;SDS011;23130;48.760;9.178;2022-07-29T13:30:22;21.13;;;8.48;;
37239;SDS011;23130;48.760;9.178;2022-07-29T13:32:48;11.40;;;8.05;;
37239;SDS011;23130;48.760;9.178;2022-07-29T13:35:14;10.75;;;8.90;;
37239;SDS011;23130;48.760;9.178;2022-07-29T13:37:40;12.68;;;10.13;;
37239;SDS011;23130;48.760;9.178;2022-07-29T13:40:07;12.05;;;10.32;;
37239;SDS011;23130;48.760;9.178;2022-07-29T13:42:33;10.52;;;9.00;;
37239;SDS011;23130;48.760;9.178;2022-07-29T13:44:59;10.32;;;8.18;;
37239;SDS011;23130;48.760;9.178;2022-07-29T13:47:26;12.00;;;8.75;;
37239;SDS011;23130;48.760;9.178;2022-07-29T13:49:53;11.48;;;8.02;;
37239;SDS011;23130;48.760;9.178;2022-07-29T13:52:19;9.82;;;8.38;;
37239;SDS011;23130;48.760;9.178;2022-07-29T13:54:45;9.07;;;8.18;;
37239;SDS011;23130;48.760;9.178;2022-07-29T13:57:11;9.32;;;7.28;;
37239;SDS011;23130;48.760;9.178;2022-07-29T13:59:38;10.68;;;6.75;;
37239;SDS011;23130;48.760;9.178;2022-07-29T14:02:05;8.60;;;6.65;;
37239;SDS011;23130;48.760;9.178;2022-07-29T14:04:31;8.00;;;6.57;;
37239;SDS011;23130;48.760;9.178;2022-07-29T14:06:56;9.85;;;7.72;;
37239;SDS011;23130;48.760;9.178;2022-07-29T14:09:22;8.30;;;7.25;;
37239;SDS011;23130;48.760;9.178;2022-07-29T14:11:48;11.13;;;6.65;;
37239;SDS011;23130;48.760;9.178;2022-07-29T14:14:15;7.30;;;6.55;;
37239;SDS011;23130;48.760;9.178;2022-07-29T14:16:41;8.23;;;6.38;;
37239;SDS011;23130;48.760;9.178;2022-07-29T14:19:06;7.38;;;6.60;;
37239;SDS011;23130;48.760;9.178;2022-07-29T14:21:32;8.25;;;7.32;;
37239;SDS011;23130;48.760;9.178;2022-07-29T14:23:57;8.27;;;6.63;;
37239;SDS011;23130;48.760;9.178;2022-07-29T14:26:23;9.75;;;6.10;;
37239;SDS011;23130;48.760;9.178;2022-07-29T14:28:49;7.03;;;6.20;;
37239;SDS011;23130;48.760;9.178;2022-07-29T14:31:15;7.72;;;6.93;;
37239;SDS011;23130;48.760;9.178;2022-07-29T14:33:41;6.68;;;5.95;;
37239;SDS011;23130;48.760;9.178;2022-07-29T14:36:07;10.63;;;7.60;;
37239;SDS011;23130;48.760;9.178;2022-07-29T14:38:34;8.40;;;7.47;;
37239;SDS011;23130;48.760;9.178;2022-07-29T14:41:00;8.18;;;7.28;;
37239;SDS011;23130;48.760;9.178;2022-07-29T14:43:25;7.85;;;6.88;;
37239;SDS011;23130;48.760;9.178;2022-07-29T14:45:51;7.57;;;6.35;;
37239;SDS011;23130;48.760;9.178;2022-07-29T14:48:16;9.57;;;6.30;;
37239;SDS011;23130;48.760;9.178;2022-07-29T14:50:42;6.82;;;6.18;;
37239;SDS011;23130;48.760;9.178;2022-07-29T14:53:08;7.50;;;6.80;;
37239;SDS011;23130;48.760;9.178;2022-07-29T14:55:33;5.93;;;5.43;;
37239;SDS011;23130;48.760;9.178;2022-07-29T14:58:00;7.00;;;5.32;;
37239;SDS011;23130;48.760;9.178;2022-07-29T15:00:26;5.85;;;5.00;;
37239;SDS011;23130;48.760;9.178;2022-07-29T15:02:52;5.50;;;5.00;;
37239;SDS011;23130;48.760;9.178;2022-07-29T15:05:18;9.35;;;5.63;;
37239;SDS011;23130;48.760;9.178;2022-07-29T15:07:43;7.78;;;5.32;;
37239;SDS011;23130;48.760;9.178;2022-07-29T15:10:09;6.43;;;4.97;;
37239;SDS011;23130;48.760;9.178;2022-07-29T15:12:34;5.72;;;5.03;;
37239;SDS011;23130;48.760;9.178;2022-07-29T15:15:00;7.43;;;5.78;;
37239;SDS011;23130;48.760;9.178;2022-07-29T15:17:26;7.60;;;6.22;;
37239;SDS011;23130;48.760;9.178;2022-07-29T15:19:51;7.85;;;5.45;;
37239;SDS011;23130;48.760;9.178;2022-07-29T15:22:17;10.40;;;5.68;;
37239;SDS011;23130;48.760;9.178;2022-07-29T15:24:43;11.88;;;6.90;;
37239;SDS011;23130;48.760;9.178;2022-07-29T15:27:09;7.35;;;6.00;;
37239;SDS011;23130;48.760;9.178;2022-07-29T15:29:39;8.63;;;6.28;;
37239;SDS011;23130;48.760;9.178;2022-07-29T15:32:06;8.77;;;7.25;;
37239;SDS011;23130;48.760;9.178;2022-07-29T15:34:31;11.57;;;7.05;;
37239;SDS011;23130;48.760;9.178;2022-07-29T15:36:57;7.35;;;6.47;;
37239;SDS011;23130;48.760;9.178;2022-07-29T15:39:23;9.45;;;7.45;;
37239;SDS011;23130;48.760;9.178;2022-07-29T15:41:48;9.52;;;8.50;;
37239;SDS011;23130;48.760;9.178;2022-07-29T15:44:14;7.75;;;7.00;;
37239;SDS011;23130;48.760;9.178;2022-07-29T15:46:40;9.70;;;7.30;;
37239;SDS011;23130;48.760;9.178;2022-07-29T15:49:24;7.35;;;6.05;;
37239;SDS011;23130;48.760;9.178;2022-07-29T15:51:55;7.00;;;6.03;;
37239;SDS011;23130;48.760;9.178;2022-07-29T15:54:30;8.27;;;7.07;;
37239;SDS011;23130;48.760;9.178;2022-07-29T15:56:57;8.60;;;6.35;;
37239;SDS011;23130;48.760;9.178;2022-07-29T15:59:23;8.43;;;6.88;;
37239;SDS011;23130;48.760;9.178;2022-07-29T16:01:49;6.82;;;6.13;;
37239;SDS011;23130;48.760;9.178;2022-07-29T16:04:15;8.38;;;6.53;;
37239;SDS011;23130;48.760;9.178;2022-07-29T16:06:41;9.32;;;6.43;;